createdAt,value
2018-08-03T00:00:36.429Z,0
2018-08-03T00:01:16.987Z,0
2018-08-03T00:01:57.554Z,0
2018-08-03T00:02:38.147Z,0
2018-08-03T00:03:18.719Z,0
2018-08-03T00:03:59.280Z,0
2018-08-03T00:04:39.851Z,0
2018-08-03T00:05:20.439Z,0
2018-08-03T00:06:01.022Z,0
2018-08-03T00:06:41.622Z,0
2018-08-03T00:07:22.201Z,0
2018-08-03T00:08:02.780Z,0
2018-08-03T00:08:43.355Z,0
2018-08-03T00:09:23.961Z,0
2018-08-03T00:10:04.535Z,0
2018-08-03T00:10:45.110Z,0
2018-08-03T00:11:25.686Z,0
2018-08-03T00:12:06.254Z,0
2018-08-03T00:12:46.824Z,0
2018-08-03T00:13:27.400Z,0
2018-08-03T00:14:07.969Z,0
2018-08-03T00:14:48.557Z,0
2018-08-03T00:15:29.110Z,0
2018-08-03T00:16:09.682Z,0
2018-08-03T00:16:50.250Z,0
2018-08-03T00:17:30.818Z,0
2018-08-03T00:18:11.380Z,0
2018-08-03T00:18:51.961Z,0
2018-08-03T00:19:32.531Z,0
2018-08-03T00:20:13.093Z,0
2018-08-03T00:20:53.666Z,0
2018-08-03T00:21:34.237Z,0
2018-08-03T00:22:14.809Z,0
2018-08-03T00:22:55.387Z,0
2018-08-03T00:23:35.980Z,0
2018-08-03T00:24:16.557Z,0
2018-08-03T00:24:57.145Z,0
2018-08-03T00:25:37.769Z,0
2018-08-03T00:26:18.305Z,0
2018-08-03T00:26:58.872Z,0
2018-08-03T00:27:39.442Z,0
2018-08-03T00:28:19.995Z,0
2018-08-03T00:29:00.574Z,0
2018-08-03T00:29:41.141Z,0
2018-08-03T00:30:21.723Z,0
2018-08-03T00:31:02.289Z,0
2018-08-03T00:31:42.868Z,0
2018-08-03T00:32:23.458Z,0
2018-08-03T00:33:04.004Z,0
2018-08-03T00:33:44.573Z,0
2018-08-03T00:34:25.137Z,0
2018-08-03T00:35:05.720Z,0
2018-08-03T00:35:46.287Z,0
2018-08-03T00:36:26.861Z,0
2018-08-03T00:37:07.474Z,0
2018-08-03T00:37:48.119Z,0
2018-08-03T00:38:28.610Z,0
2018-08-03T00:39:09.169Z,0
2018-08-03T00:39:49.801Z,0
2018-08-03T00:40:30.362Z,0
2018-08-03T00:41:11.029Z,0
2018-08-03T00:41:51.589Z,0
2018-08-03T00:42:32.156Z,0
2018-08-03T00:43:12.712Z,0
2018-08-03T00:43:53.328Z,0
2018-08-03T00:44:33.888Z,0
2018-08-03T00:45:14.449Z,0
2018-08-03T00:45:55.027Z,0
2018-08-03T00:46:35.608Z,0
2018-08-03T00:47:16.176Z,0
2018-08-03T00:47:56.741Z,0
2018-08-03T00:48:37.315Z,0
2018-08-03T00:49:17.884Z,0
2018-08-03T00:49:58.454Z,0
2018-08-03T00:50:39.039Z,0
2018-08-03T00:51:19.650Z,0
2018-08-03T00:52:00.275Z,0
2018-08-03T00:52:40.880Z,0
2018-08-03T00:53:21.411Z,0
2018-08-03T00:54:02.104Z,0
2018-08-03T00:54:42.711Z,0
2018-08-03T00:55:23.388Z,0
2018-08-03T00:56:03.984Z,0
2018-08-03T00:56:44.552Z,0
2018-08-03T00:57:25.165Z,0
2018-08-03T00:58:05.736Z,0
2018-08-03T00:58:46.326Z,0
2018-08-03T00:59:26.936Z,0
2018-08-03T01:00:07.724Z,0
2018-08-03T01:00:48.283Z,0
2018-08-03T01:01:28.860Z,0
2018-08-03T01:02:09.436Z,0
2018-08-03T01:02:50.044Z,0
2018-08-03T01:03:30.823Z,0
2018-08-03T01:04:11.424Z,0
2018-08-03T01:04:51.990Z,0
2018-08-03T01:05:32.586Z,0
2018-08-03T01:06:13.165Z,0
2018-08-03T01:06:53.752Z,0
2018-08-03T01:07:34.345Z,0
2018-08-03T01:08:14.927Z,0
2018-08-03T01:08:55.557Z,0
2018-08-03T01:09:36.126Z,0
2018-08-03T01:10:16.709Z,0
2018-08-03T01:10:57.283Z,0
2018-08-03T01:11:37.850Z,0
2018-08-03T01:12:18.565Z,0
2018-08-03T01:12:59.142Z,0
2018-08-03T01:13:39.705Z,0
2018-08-03T01:14:20.321Z,0
2018-08-03T01:15:00.911Z,0
2018-08-03T01:15:41.474Z,0
2018-08-03T01:16:22.051Z,0
2018-08-03T01:17:02.607Z,0
2018-08-03T01:17:43.178Z,0
2018-08-03T01:18:23.751Z,0
2018-08-03T01:19:04.305Z,0
2018-08-03T01:19:44.862Z,0
2018-08-03T01:20:25.431Z,0
2018-08-03T01:21:06.001Z,0
2018-08-03T01:21:46.561Z,0
2018-08-03T01:22:27.120Z,0
2018-08-03T01:23:07.692Z,0
2018-08-03T01:23:48.264Z,0
2018-08-03T01:24:28.853Z,0
2018-08-03T01:25:09.421Z,0
2018-08-03T01:25:50.070Z,0
2018-08-03T01:26:30.623Z,0
2018-08-03T01:27:11.194Z,0
2018-08-03T01:27:51.786Z,0
2018-08-03T01:28:32.347Z,0
2018-08-03T01:29:12.965Z,0
2018-08-03T01:29:53.544Z,0
2018-08-03T01:30:34.111Z,0
2018-08-03T01:31:14.680Z,0
2018-08-03T01:31:55.265Z,0
2018-08-03T01:32:35.830Z,0
2018-08-03T01:33:16.398Z,0
2018-08-03T01:33:56.961Z,0
2018-08-03T01:34:37.534Z,0
2018-08-03T01:35:18.103Z,0
2018-08-03T01:35:58.659Z,0
2018-08-03T01:36:39.213Z,0
2018-08-03T01:37:19.786Z,0
2018-08-03T01:38:00.472Z,0
2018-08-03T01:38:40.928Z,0
2018-08-03T01:39:21.495Z,0
2018-08-03T01:40:02.056Z,0
2018-08-03T01:40:42.623Z,0
2018-08-03T01:41:23.200Z,0
2018-08-03T01:42:03.769Z,0
2018-08-03T01:42:44.338Z,0
2018-08-03T01:43:24.892Z,0
2018-08-03T01:44:05.464Z,0
2018-08-03T01:44:46.034Z,0
2018-08-03T01:45:26.611Z,0
2018-08-03T01:46:07.179Z,0
2018-08-03T01:46:47.744Z,0
2018-08-03T01:47:28.323Z,0
2018-08-03T01:48:08.894Z,0
2018-08-03T01:48:49.506Z,0
2018-08-03T01:49:30.111Z,0
2018-08-03T01:50:10.696Z,0
2018-08-03T01:50:51.252Z,0
2018-08-03T01:51:31.812Z,0
2018-08-03T01:52:12.374Z,0
2018-08-03T01:52:52.948Z,0
2018-08-03T01:53:33.524Z,0
2018-08-03T01:54:14.100Z,0
2018-08-03T01:54:54.672Z,0
2018-08-03T01:55:35.240Z,0
2018-08-03T01:56:15.813Z,0
2018-08-03T01:56:56.398Z,0
2018-08-03T01:57:36.970Z,0
2018-08-03T01:58:17.560Z,0
2018-08-03T01:58:58.172Z,0
2018-08-03T01:59:38.723Z,0
2018-08-03T02:00:19.364Z,0
2018-08-03T02:00:59.931Z,0
2018-08-03T02:01:40.510Z,0
2018-08-03T02:02:21.065Z,0
2018-08-03T02:03:01.627Z,0
2018-08-03T02:03:42.203Z,0
2018-08-03T02:04:22.774Z,0
2018-08-03T02:05:03.336Z,0
2018-08-03T02:05:43.905Z,0
2018-08-03T02:06:24.475Z,0
2018-08-03T02:07:05.047Z,0
2018-08-03T02:07:45.622Z,0
2018-08-03T02:08:26.196Z,0
2018-08-03T02:09:06.778Z,0
2018-08-03T02:09:47.364Z,0
2018-08-03T02:10:27.928Z,0
2018-08-03T02:11:08.521Z,0
2018-08-03T02:11:49.117Z,0
2018-08-03T02:12:29.684Z,0
2018-08-03T02:13:10.255Z,0
2018-08-03T02:13:50.819Z,0
2018-08-03T02:14:31.396Z,0
2018-08-03T02:15:11.968Z,0
2018-08-03T02:15:52.538Z,0
2018-08-03T02:16:33.103Z,0
2018-08-03T02:17:13.666Z,0
2018-08-03T02:17:54.233Z,0
2018-08-03T02:18:34.811Z,0
2018-08-03T02:19:15.365Z,0
2018-08-03T02:19:55.944Z,0
2018-08-03T02:20:36.509Z,0
2018-08-03T02:21:17.083Z,0
2018-08-03T02:21:57.642Z,0
2018-08-03T02:22:38.212Z,0
2018-08-03T02:23:18.786Z,0
2018-08-03T02:23:59.361Z,0
2018-08-03T02:24:39.928Z,0
2018-08-03T02:25:20.502Z,0
2018-08-03T02:26:01.083Z,0
2018-08-03T02:26:41.642Z,0
2018-08-03T02:27:22.178Z,0
2018-08-03T02:28:02.813Z,0
2018-08-03T02:28:43.397Z,0
2018-08-03T02:29:24.031Z,0
2018-08-03T02:30:04.638Z,0
2018-08-03T02:30:45.197Z,0
2018-08-03T02:31:25.757Z,0
2018-08-03T02:32:06.330Z,0
2018-08-03T02:32:46.913Z,0
2018-08-03T02:33:27.533Z,0
2018-08-03T02:34:08.119Z,0
2018-08-03T02:34:48.677Z,0
2018-08-03T02:35:29.241Z,0
2018-08-03T02:36:09.810Z,0
2018-08-03T02:36:50.386Z,0
2018-08-03T02:37:30.947Z,0
2018-08-03T02:38:11.539Z,0
2018-08-03T02:38:52.104Z,0
2018-08-03T02:39:32.876Z,0
2018-08-03T02:40:13.444Z,0
2018-08-03T02:40:53.999Z,0
2018-08-03T02:41:34.586Z,0
2018-08-03T02:42:15.132Z,0
2018-08-03T02:42:55.707Z,0
2018-08-03T02:43:36.267Z,0
2018-08-03T02:44:16.834Z,0
2018-08-03T02:44:57.400Z,0
2018-08-03T02:45:38.002Z,0
2018-08-03T02:46:18.583Z,0
2018-08-03T02:46:59.186Z,0
2018-08-03T02:47:39.736Z,0
2018-08-03T02:48:20.299Z,0
2018-08-03T02:49:00.891Z,0
2018-08-03T02:49:41.463Z,0
2018-08-03T02:50:22.086Z,0
2018-08-03T02:51:02.643Z,0
2018-08-03T02:51:43.233Z,0
2018-08-03T02:52:23.796Z,0
2018-08-03T02:53:04.387Z,0
2018-08-03T02:53:44.995Z,0
2018-08-03T02:54:25.662Z,0
2018-08-03T02:55:06.218Z,0
2018-08-03T02:55:46.792Z,0
2018-08-03T02:56:27.515Z,0
2018-08-03T02:57:08.074Z,0
2018-08-03T02:57:48.677Z,0
2018-08-03T02:58:29.243Z,0
2018-08-03T02:59:09.790Z,0
2018-08-03T02:59:50.384Z,0
2018-08-03T03:00:30.982Z,0
2018-08-03T03:01:11.541Z,0
2018-08-03T03:01:52.162Z,0
2018-08-03T03:02:32.725Z,0
2018-08-03T03:03:13.306Z,0
2018-08-03T03:03:53.871Z,0
2018-08-03T03:04:34.437Z,0
2018-08-03T03:05:15.015Z,0
2018-08-03T03:05:55.591Z,0
2018-08-03T03:06:36.166Z,0
2018-08-03T03:07:16.753Z,0
2018-08-03T03:07:57.329Z,0
2018-08-03T03:08:37.914Z,0
2018-08-03T03:09:18.473Z,0
2018-08-03T03:09:59.042Z,0
2018-08-03T03:10:39.628Z,0
2018-08-03T03:11:20.202Z,0
2018-08-03T03:12:00.777Z,0
2018-08-03T03:12:41.331Z,0
2018-08-03T03:13:21.898Z,0
2018-08-03T03:14:02.471Z,0
2018-08-03T03:14:43.054Z,0
2018-08-03T03:15:23.625Z,0
2018-08-03T03:16:04.229Z,0
2018-08-03T03:16:44.788Z,0
2018-08-03T03:17:25.371Z,0
2018-08-03T03:18:06.001Z,0
2018-08-03T03:18:46.689Z,0
2018-08-03T03:19:27.313Z,0
2018-08-03T03:20:07.955Z,0
2018-08-03T03:20:48.805Z,0
2018-08-03T03:21:29.384Z,0
2018-08-03T03:22:09.940Z,0
2018-08-03T03:22:50.570Z,0
2018-08-03T03:23:31.122Z,0
2018-08-03T03:24:11.732Z,0
2018-08-03T03:24:52.337Z,0
2018-08-03T03:25:32.994Z,0
2018-08-03T03:26:13.568Z,0
2018-08-03T03:26:54.166Z,0
2018-08-03T03:27:34.809Z,0
2018-08-03T03:28:15.409Z,0
2018-08-03T03:28:56.017Z,0
2018-08-03T03:29:36.597Z,0
2018-08-03T03:30:17.151Z,0
2018-08-03T03:30:57.716Z,0
2018-08-03T03:31:38.286Z,0
2018-08-03T03:32:18.839Z,0
2018-08-03T03:32:59.419Z,0
2018-08-03T03:33:39.982Z,0
2018-08-03T03:34:20.543Z,0
2018-08-03T03:35:01.169Z,0
2018-08-03T03:35:41.926Z,0
2018-08-03T03:36:22.534Z,0
2018-08-03T03:37:03.178Z,0
2018-08-03T03:37:43.786Z,0
2018-08-03T03:38:24.424Z,0
2018-08-03T03:39:05.067Z,0
2018-08-03T03:39:45.627Z,0
2018-08-03T03:40:26.209Z,0
2018-08-03T03:41:06.908Z,0
2018-08-03T03:41:47.542Z,0
2018-08-03T03:42:28.115Z,0
2018-08-03T03:43:08.727Z,0
2018-08-03T03:43:49.306Z,0
2018-08-03T03:44:29.904Z,0
2018-08-03T03:45:10.467Z,0
2018-08-03T03:45:51.076Z,0
2018-08-03T03:46:31.650Z,0
2018-08-03T03:47:12.222Z,0
2018-08-03T03:47:52.783Z,0
2018-08-03T03:48:33.350Z,0
2018-08-03T03:49:13.909Z,0
2018-08-03T03:49:54.498Z,0
2018-08-03T03:50:35.078Z,0
2018-08-03T03:51:15.661Z,0
2018-08-03T03:51:56.231Z,0
2018-08-03T03:52:36.786Z,0
2018-08-03T03:53:17.354Z,0
2018-08-03T03:53:57.917Z,0
2018-08-03T03:54:38.494Z,0
2018-08-03T03:55:19.065Z,0
2018-08-03T03:55:59.639Z,0
2018-08-03T03:56:40.211Z,0
2018-08-03T03:57:20.783Z,0
2018-08-03T03:58:01.361Z,0
2018-08-03T03:58:41.937Z,0
2018-08-03T03:59:22.521Z,0
2018-08-03T04:00:03.103Z,5
2018-08-03T04:00:43.672Z,5
2018-08-03T04:01:24.244Z,5
2018-08-03T04:02:04.833Z,5
2018-08-03T04:02:45.368Z,5
2018-08-03T04:03:25.965Z,5
2018-08-03T04:04:06.560Z,5
2018-08-03T04:04:47.248Z,5
2018-08-03T04:05:27.855Z,5
2018-08-03T04:06:08.283Z,5
2018-08-03T04:06:48.860Z,5
2018-08-03T04:07:29.429Z,5
2018-08-03T04:08:09.997Z,5
2018-08-03T04:08:50.556Z,5
2018-08-03T04:09:31.116Z,5
2018-08-03T04:10:11.689Z,5
2018-08-03T04:10:52.304Z,5
2018-08-03T04:11:32.837Z,5
2018-08-03T04:12:13.570Z,5
2018-08-03T04:12:54.057Z,5
2018-08-03T04:13:34.655Z,5
2018-08-03T04:14:15.226Z,5
2018-08-03T04:14:55.772Z,5
2018-08-03T04:15:36.327Z,5
2018-08-03T04:16:16.887Z,5
2018-08-03T04:16:57.457Z,5
2018-08-03T04:17:38.007Z,5
2018-08-03T04:18:18.579Z,5
2018-08-03T04:18:59.133Z,10
2018-08-03T04:19:39.691Z,10
2018-08-03T04:20:20.264Z,10
2018-08-03T04:21:00.864Z,10
2018-08-03T04:21:41.394Z,10
2018-08-03T04:22:21.977Z,10
2018-08-03T04:23:02.548Z,10
2018-08-03T04:23:43.120Z,10
2018-08-03T04:24:23.692Z,10
2018-08-03T04:25:04.252Z,10
2018-08-03T04:25:44.813Z,15
2018-08-03T04:26:25.375Z,15
2018-08-03T04:27:05.938Z,15
2018-08-03T04:27:46.500Z,15
2018-08-03T04:28:27.056Z,15
2018-08-03T04:29:07.630Z,15
2018-08-03T04:29:48.201Z,20
2018-08-03T04:30:28.756Z,20
2018-08-03T04:31:09.308Z,20
2018-08-03T04:31:49.921Z,20
2018-08-03T04:32:30.560Z,20
2018-08-03T04:33:11.166Z,25
2018-08-03T04:33:51.782Z,25
2018-08-03T04:34:32.324Z,25
2018-08-03T04:35:12.902Z,25
2018-08-03T04:35:53.466Z,25
2018-08-03T04:36:34.058Z,25
2018-08-03T04:37:14.619Z,25
2018-08-03T04:37:55.292Z,30
2018-08-03T04:38:35.897Z,30
2018-08-03T04:39:16.507Z,30
2018-08-03T04:39:57.213Z,30
2018-08-03T04:40:37.813Z,30
2018-08-03T04:41:18.454Z,35
2018-08-03T04:41:59.180Z,35
2018-08-03T04:42:39.816Z,35
2018-08-03T04:43:20.415Z,40
2018-08-03T04:44:00.989Z,40
2018-08-03T04:44:41.678Z,40
2018-08-03T04:45:22.273Z,40
2018-08-03T04:46:02.885Z,45
2018-08-03T04:46:43.483Z,45
2018-08-03T04:47:24.193Z,50
2018-08-03T04:48:04.781Z,50
2018-08-03T04:48:45.460Z,55
2018-08-03T04:49:25.985Z,55
2018-08-03T04:50:06.542Z,55
2018-08-03T04:50:47.118Z,60
2018-08-03T04:51:27.695Z,60
2018-08-03T04:52:08.289Z,65
2018-08-03T04:52:48.842Z,65
2018-08-03T04:53:29.390Z,70
2018-08-03T04:54:09.955Z,70
2018-08-03T04:54:50.566Z,75
2018-08-03T04:55:31.083Z,75
2018-08-03T04:56:11.658Z,75
2018-08-03T04:56:52.224Z,80
2018-08-03T04:57:32.786Z,80
2018-08-03T04:58:13.354Z,80
2018-08-03T04:58:53.922Z,85
2018-08-03T04:59:34.498Z,85
2018-08-03T05:00:15.066Z,90
2018-08-03T05:00:55.654Z,90
2018-08-03T05:01:36.296Z,90
2018-08-03T05:02:16.836Z,95
2018-08-03T05:02:57.396Z,100
2018-08-03T05:03:37.951Z,100
2018-08-03T05:04:18.534Z,95
2018-08-03T05:04:59.101Z,90
2018-08-03T05:05:39.706Z,90
2018-08-03T05:06:20.274Z,85
2018-08-03T05:07:00.895Z,85
2018-08-03T05:07:41.540Z,80
2018-08-03T05:08:22.112Z,80
2018-08-03T05:09:02.789Z,75
2018-08-03T05:09:43.460Z,75
2018-08-03T05:10:24.128Z,70
2018-08-03T05:11:04.769Z,70
2018-08-03T05:11:45.305Z,65
2018-08-03T05:12:25.953Z,65
2018-08-03T05:13:06.506Z,60
2018-08-03T05:13:47.180Z,60
2018-08-03T05:14:27.647Z,55
2018-08-03T05:15:08.221Z,55
2018-08-03T05:15:48.778Z,55
2018-08-03T05:16:29.389Z,50
2018-08-03T05:17:09.953Z,50
2018-08-03T05:17:50.518Z,50
2018-08-03T05:18:31.109Z,50
2018-08-03T05:19:11.717Z,55
2018-08-03T05:19:52.400Z,55
2018-08-03T05:20:33.024Z,55
2018-08-03T05:21:13.832Z,55
2018-08-03T05:21:54.486Z,65
2018-08-03T05:22:35.081Z,60
2018-08-03T05:23:15.702Z,65
2018-08-03T05:23:56.272Z,65
2018-08-03T05:24:36.862Z,70
2018-08-03T05:25:17.425Z,75
2018-08-03T05:25:58.002Z,80
2018-08-03T05:26:38.566Z,85
2018-08-03T05:27:19.125Z,90
2018-08-03T05:27:59.714Z,100
2018-08-03T05:28:40.264Z,105
2018-08-03T05:29:20.828Z,110
2018-08-03T05:30:01.407Z,115
2018-08-03T05:30:41.969Z,120
2018-08-03T05:31:22.539Z,125
2018-08-03T05:32:03.108Z,130
2018-08-03T05:32:43.674Z,135
2018-08-03T05:33:24.252Z,140
2018-08-03T05:34:04.821Z,140
2018-08-03T05:34:45.391Z,140
2018-08-03T05:35:26.024Z,145
2018-08-03T05:36:06.685Z,145
2018-08-03T05:36:47.116Z,150
2018-08-03T05:37:27.674Z,155
2018-08-03T05:38:08.229Z,160
2018-08-03T05:38:48.800Z,170
2018-08-03T05:39:29.374Z,175
2018-08-03T05:40:09.936Z,185
2018-08-03T05:40:50.557Z,185
2018-08-03T05:41:31.154Z,200
2018-08-03T05:42:11.815Z,200
2018-08-03T05:42:52.440Z,205
2018-08-03T05:43:33.019Z,205
2018-08-03T05:44:13.592Z,255
2018-08-03T05:44:54.169Z,420
2018-08-03T05:45:34.784Z,600
2018-08-03T05:46:15.301Z,780
2018-08-03T05:46:55.860Z,940
2018-08-03T05:47:36.430Z,1020
2018-08-03T05:48:17.008Z,1010
2018-08-03T05:48:57.568Z,1015
2018-08-03T05:49:38.183Z,1015
2018-08-03T05:50:18.794Z,1085
2018-08-03T05:50:59.305Z,1065
2018-08-03T05:51:39.921Z,1080
2018-08-03T05:52:20.540Z,1080
2018-08-03T05:53:01.073Z,1095
2018-08-03T05:53:41.643Z,1075
2018-08-03T05:54:22.212Z,1045
2018-08-03T05:55:02.792Z,1015
2018-08-03T05:55:43.374Z,990
2018-08-03T05:56:23.948Z,935
2018-08-03T05:57:04.533Z,880
2018-08-03T05:57:45.065Z,815
2018-08-03T05:58:25.631Z,760
2018-08-03T05:59:06.192Z,635
2018-08-03T05:59:46.761Z,260
2018-08-03T06:00:27.328Z,200
2018-08-03T06:01:07.908Z,245
2018-08-03T06:01:48.479Z,390
2018-08-03T06:02:29.095Z,185
2018-08-03T06:03:09.660Z,170
2018-08-03T06:03:50.267Z,170
2018-08-03T06:04:30.797Z,160
2018-08-03T06:05:11.369Z,160
2018-08-03T06:05:51.929Z,160
2018-08-03T06:06:32.496Z,165
2018-08-03T06:07:13.088Z,165
2018-08-03T06:07:53.660Z,165
2018-08-03T06:08:34.240Z,175
2018-08-03T06:09:14.949Z,185
2018-08-03T06:09:55.661Z,220
2018-08-03T06:10:36.146Z,200
2018-08-03T06:11:16.681Z,215
2018-08-03T06:11:57.246Z,225
2018-08-03T06:12:37.815Z,240
2018-08-03T06:13:18.371Z,255
2018-08-03T06:13:58.957Z,275
2018-08-03T06:14:39.558Z,675
2018-08-03T06:15:20.278Z,620
2018-08-03T06:16:00.846Z,280
2018-08-03T06:16:41.425Z,280
2018-08-03T06:17:22.002Z,290
2018-08-03T06:18:02.568Z,290
2018-08-03T06:18:43.636Z,1255
2018-08-03T06:19:24.485Z,1210
2018-08-03T06:20:05.064Z,1085
2018-08-03T06:20:45.750Z,1235
2018-08-03T06:21:26.301Z,1290
2018-08-03T06:22:06.878Z,1310
2018-08-03T06:22:47.452Z,1295
2018-08-03T06:23:28.043Z,1290
2018-08-03T06:24:08.663Z,1365
2018-08-03T06:24:49.647Z,1385
2018-08-03T06:25:30.209Z,1375
2018-08-03T06:26:10.774Z,1325
2018-08-03T06:26:51.409Z,1365
2018-08-03T06:27:32.083Z,1355
2018-08-03T06:28:12.796Z,1345
2018-08-03T06:28:53.468Z,1355
2018-08-03T06:29:34.073Z,1360
2018-08-03T06:30:14.616Z,1250
2018-08-03T06:30:55.209Z,1165
2018-08-03T06:31:35.878Z,1190
2018-08-03T06:32:17.678Z,1170
2018-08-03T06:32:59.680Z,1210
2018-08-03T06:33:41.058Z,1095
2018-08-03T06:34:21.588Z,885
2018-08-03T06:35:03.969Z,625
2018-08-03T06:35:45.861Z,470
2018-08-03T06:36:27.142Z,1230
2018-08-03T06:37:09.095Z,1305
2018-08-03T06:37:51.261Z,1215
2018-08-03T06:38:33.081Z,1275
2018-08-03T06:39:15.530Z,1310
2018-08-03T06:39:57.583Z,1105
2018-08-03T06:40:39.371Z,420
2018-08-03T06:41:21.269Z,705
2018-08-03T06:42:03.314Z,980
2018-08-03T06:42:44.872Z,1005
2018-08-03T06:43:26.087Z,940
2018-08-03T06:44:07.897Z,445
2018-08-03T06:44:49.978Z,425
2018-08-03T06:45:32.562Z,485
2018-08-03T06:46:14.553Z,1280
2018-08-03T06:46:56.435Z,1175
2018-08-03T06:47:38.334Z,885
2018-08-03T06:48:19.735Z,1120
2018-08-03T06:49:00.804Z,1245
2018-08-03T06:49:42.105Z,1340
2018-08-03T06:50:24.853Z,1310
2018-08-03T06:51:07.072Z,1390
2018-08-03T06:51:48.279Z,1410
2018-08-03T06:52:30.624Z,1440
2018-08-03T06:53:12.083Z,1410
2018-08-03T06:53:53.628Z,1420
2018-08-03T06:54:35.488Z,1420
2018-08-03T06:55:18.064Z,1470
2018-08-03T06:56:01.191Z,1435
2018-08-03T06:56:43.967Z,1415
2018-08-03T06:57:25.228Z,1360
2018-08-03T06:58:06.585Z,1435
2018-08-03T06:58:48.613Z,1450
2018-08-03T06:59:30.163Z,1445
2018-08-03T07:00:11.747Z,1390
2018-08-03T07:00:54.758Z,1370
2018-08-03T07:01:36.856Z,1375
2018-08-03T07:02:19.792Z,1400
2018-08-03T07:03:03.010Z,1425
2018-08-03T07:03:44.179Z,1420
2018-08-03T07:04:25.391Z,1450
2018-08-03T07:05:06.709Z,1440
2018-08-03T07:05:48.586Z,1465
2018-08-03T07:06:30.479Z,1545
2018-08-03T07:07:11.832Z,1590
2018-08-03T07:07:53.195Z,1600
2018-08-03T07:08:34.708Z,1620
2018-08-03T07:09:16.548Z,1620
2018-08-03T07:09:59.444Z,1635
2018-08-03T07:10:43.562Z,1510
2018-08-03T07:11:26.508Z,1395
2018-08-03T07:12:07.852Z,1440
2018-08-03T07:12:49.023Z,1620
2018-08-03T07:13:30.305Z,1715
2018-08-03T07:14:13.461Z,1660
2018-08-03T07:14:55.492Z,1585
2018-08-03T07:15:36.798Z,1470
2018-08-03T07:16:18.484Z,1475
2018-08-03T07:16:59.734Z,1550
2018-08-03T07:17:41.492Z,1500
2018-08-03T07:18:23.043Z,1435
2018-08-03T07:19:05.034Z,1355
2018-08-03T07:19:46.252Z,1265
2018-08-03T07:20:27.480Z,1190
2018-08-03T07:21:08.665Z,1135
2018-08-03T07:21:49.812Z,1060
2018-08-03T07:22:32.074Z,990
2018-08-03T07:23:14.957Z,930
2018-08-03T07:23:56.103Z,860
2018-08-03T07:24:37.157Z,810
2018-08-03T07:25:18.461Z,760
2018-08-03T07:25:59.806Z,720
2018-08-03T07:26:41.477Z,695
2018-08-03T07:27:23.378Z,675
2018-08-03T07:28:07.011Z,655
2018-08-03T07:28:49.185Z,640
2018-08-03T07:29:30.286Z,625
2018-08-03T07:30:13.164Z,605
2018-08-03T07:30:54.589Z,590
2018-08-03T07:31:35.612Z,585
2018-08-03T07:32:16.904Z,590
2018-08-03T07:32:58.921Z,595
2018-08-03T07:33:41.277Z,590
2018-08-03T07:34:23.194Z,590
2018-08-03T07:35:04.464Z,590
2018-08-03T07:35:45.633Z,585
2018-08-03T07:36:26.834Z,595
2018-08-03T07:37:08.748Z,590
2018-08-03T07:37:50.155Z,595
2018-08-03T07:38:30.907Z,600
2018-08-03T07:39:11.473Z,595
2018-08-03T07:39:52.077Z,590
2018-08-03T07:40:32.708Z,585
2018-08-03T07:41:13.293Z,585
2018-08-03T07:41:53.877Z,580
2018-08-03T07:42:34.482Z,575
2018-08-03T07:43:15.153Z,575
2018-08-03T07:43:55.702Z,570
2018-08-03T07:44:36.310Z,575
2018-08-03T07:45:16.866Z,580
2018-08-03T07:45:57.471Z,590
2018-08-03T07:46:38.070Z,575
2018-08-03T07:47:18.664Z,570
2018-08-03T07:47:59.234Z,560
2018-08-03T07:48:39.811Z,555
2018-08-03T07:49:20.390Z,555
2018-08-03T07:50:00.963Z,560
2018-08-03T07:50:41.543Z,560
2018-08-03T07:51:22.156Z,555
2018-08-03T07:52:02.746Z,555
2018-08-03T07:52:43.321Z,555
2018-08-03T07:53:23.948Z,560
2018-08-03T07:54:04.539Z,555
2018-08-03T07:54:45.160Z,550
2018-08-03T07:57:13.397Z,560
2018-08-03T07:57:54.058Z,560
2018-08-03T07:58:34.653Z,555
2018-08-03T07:59:15.283Z,555
2018-08-03T07:59:55.837Z,555
2018-08-03T08:00:36.413Z,555
2018-08-03T08:01:16.970Z,555
2018-08-03T08:01:57.662Z,550
2018-08-03T08:02:38.275Z,560
2018-08-03T08:03:18.897Z,545
2018-08-03T08:03:59.444Z,545
2018-08-03T08:04:40.012Z,540
2018-08-03T08:05:20.581Z,530
2018-08-03T08:06:01.327Z,510
2018-08-03T08:06:41.924Z,495
2018-08-03T08:07:22.506Z,485
2018-08-03T08:08:03.080Z,465
2018-08-03T08:08:43.731Z,440
2018-08-03T08:09:24.304Z,425
2018-08-03T08:10:04.871Z,415
2018-08-03T08:10:45.448Z,410
2018-08-03T08:11:26.059Z,405
2018-08-03T08:12:06.632Z,400
2018-08-03T08:12:47.217Z,395
2018-08-03T08:13:27.793Z,390
2018-08-03T08:14:08.370Z,390
2018-08-03T08:14:48.950Z,385
2018-08-03T08:15:29.522Z,385
2018-08-03T08:16:10.131Z,385
2018-08-03T08:16:51.488Z,380
2018-08-03T08:17:34.750Z,375
2018-08-03T08:18:16.945Z,375
2018-08-03T08:19:01.313Z,370
2018-08-03T08:19:41.568Z,365
2018-08-03T08:20:24.375Z,365
2018-08-03T08:21:07.077Z,360
2018-08-03T08:21:48.363Z,355
2018-08-03T08:22:31.255Z,350
2018-08-03T08:23:12.300Z,350
2018-08-03T08:23:53.530Z,345
2018-08-03T08:24:35.658Z,340
2018-08-03T08:25:16.545Z,335
2018-08-03T08:25:58.630Z,330
2018-08-03T08:26:42.097Z,325
2018-08-03T08:27:24.397Z,320
2018-08-03T08:28:05.837Z,315
2018-08-03T08:28:47.730Z,315
2018-08-03T08:29:29.547Z,310
2018-08-03T08:30:13.322Z,305
2018-08-03T08:30:54.306Z,305
2018-08-03T08:31:35.599Z,305
2018-08-03T08:32:17.585Z,300
2018-08-03T08:33:00.824Z,295
2018-08-03T08:33:42.017Z,290
2018-08-03T08:34:24.148Z,285
2018-08-03T08:35:08.121Z,285
2018-08-03T08:35:49.526Z,280
2018-08-03T08:36:31.604Z,275
2018-08-03T08:37:12.844Z,275
2018-08-03T08:37:54.744Z,270
2018-08-03T08:38:36.036Z,265
2018-08-03T08:39:20.148Z,265
2018-08-03T08:40:02.059Z,265
2018-08-03T08:40:43.320Z,260
2018-08-03T08:41:24.773Z,265
2018-08-03T08:42:06.323Z,255
2018-08-03T08:42:48.680Z,255
2018-08-03T08:43:29.850Z,250
2018-08-03T08:44:10.910Z,250
2018-08-03T08:44:52.793Z,245
2018-08-03T08:45:34.134Z,240
2018-08-03T08:46:17.902Z,240
2018-08-03T08:47:00.899Z,240
2018-08-03T08:47:43.915Z,235
2018-08-03T08:48:24.773Z,235
2018-08-03T08:49:06.759Z,230
2018-08-03T08:49:48.734Z,230
2018-08-03T08:50:30.489Z,225
2018-08-03T08:51:12.393Z,225
2018-08-03T08:51:53.629Z,220
2018-08-03T08:52:35.026Z,220
2018-08-03T08:53:16.896Z,215
2018-08-03T08:53:59.863Z,215
2018-08-03T08:54:41.721Z,210
2018-08-03T08:55:23.814Z,210
2018-08-03T08:56:04.998Z,210
2018-08-03T08:56:46.067Z,205
2018-08-03T08:57:27.280Z,205
2018-08-03T08:58:09.437Z,205
2018-08-03T08:58:51.717Z,200
2018-08-03T08:59:33.833Z,200
2018-08-03T09:00:15.750Z,200
2018-08-03T09:00:58.188Z,200
2018-08-03T09:01:40.286Z,195
2018-08-03T09:02:21.449Z,195
2018-08-03T09:03:03.634Z,195
2018-08-03T09:03:47.321Z,195
2018-08-03T09:04:28.631Z,190
2018-08-03T09:05:13.690Z,190
2018-08-03T09:05:56.781Z,190
2018-08-03T09:06:37.835Z,190
2018-08-03T09:07:18.420Z,190
2018-08-03T09:07:59.211Z,185
2018-08-03T09:08:39.780Z,185
2018-08-03T09:09:20.393Z,185
2018-08-03T09:10:00.972Z,180
2018-08-03T09:10:41.555Z,180
2018-08-03T09:11:22.131Z,180
2018-08-03T09:12:02.702Z,175
2018-08-03T09:12:43.329Z,175
2018-08-03T09:13:23.964Z,175
2018-08-03T09:14:04.586Z,170
2018-08-03T09:14:45.211Z,170
2018-08-03T09:15:25.782Z,170
2018-08-03T09:16:06.352Z,165
2018-08-03T09:16:46.942Z,165
2018-08-03T09:17:27.503Z,165
2018-08-03T09:18:08.082Z,165
2018-08-03T09:18:48.701Z,160
2018-08-03T09:19:29.243Z,165
2018-08-03T09:20:09.778Z,160
2018-08-03T09:20:50.351Z,155
2018-08-03T09:21:30.900Z,155
2018-08-03T09:22:11.503Z,155
2018-08-03T09:22:52.045Z,155
2018-08-03T09:23:32.616Z,150
2018-08-03T09:24:13.176Z,150
2018-08-03T09:24:53.741Z,150
2018-08-03T09:25:34.318Z,150
2018-08-03T09:26:14.923Z,150
2018-08-03T09:26:55.486Z,150
2018-08-03T09:27:36.036Z,150
2018-08-03T09:28:16.604Z,145
2018-08-03T09:28:57.177Z,145
2018-08-03T09:29:37.745Z,145
2018-08-03T09:30:18.348Z,145
2018-08-03T09:30:58.973Z,145
2018-08-03T09:31:39.474Z,145
2018-08-03T09:32:20.031Z,145
2018-08-03T09:33:00.634Z,145
2018-08-03T09:33:41.225Z,145
2018-08-03T09:34:21.790Z,140
2018-08-03T09:35:02.375Z,140
2018-08-03T09:35:42.965Z,140
2018-08-03T09:36:23.581Z,140
2018-08-03T09:37:04.103Z,140
2018-08-03T09:37:44.685Z,140
2018-08-03T09:38:25.257Z,140
2018-08-03T09:39:06.289Z,140
2018-08-03T09:39:46.863Z,140
2018-08-03T09:40:27.427Z,135
2018-08-03T09:41:08.004Z,135
2018-08-03T09:41:48.640Z,135
2018-08-03T09:42:29.217Z,135